createdAt,value
2023-05-05T00:00:37.164Z,0.70
2023-05-05T00:03:06.371Z,0.30
2023-05-05T00:05:35.002Z,0.20
2023-05-05T00:08:06.817Z,0.20
2023-05-05T00:10:35.796Z,0.30
2023-05-05T00:13:07.088Z,0.60
2023-05-05T00:15:36.504Z,0.77
2023-05-05T00:18:05.732Z,0.82
2023-05-05T00:20:34.371Z,0.50
2023-05-05T00:23:03.638Z,0.60
2023-05-05T00:25:37.153Z,0.30
2023-05-05T00:28:07.111Z,0.77
2023-05-05T00:30:36.327Z,0.40
2023-05-05T00:33:06.342Z,0.30
2023-05-05T00:35:36.330Z,0.40
2023-05-05T00:38:06.942Z,0.30
2023-05-05T00:40:38.230Z,0.43
2023-05-05T00:43:08.729Z,0.25
2023-05-05T00:45:41.926Z,0.20
2023-05-05T00:48:10.842Z,0.40
2023-05-05T00:50:40.193Z,0.40
2023-05-05T00:53:09.339Z,0.50
2023-05-05T00:55:41.833Z,0.60
2023-05-05T00:58:11.254Z,0.77
2023-05-05T01:00:43.313Z,0.70
2023-05-05T01:03:15.586Z,0.30
2023-05-05T01:05:57.549Z,0.40
2023-05-05T01:08:44.904Z,0.40
2023-05-05T01:11:27.424Z,0.50
2023-05-05T01:14:16.322Z,1.00
2023-05-05T01:16:57.722Z,0.82
2023-05-05T01:20:08.297Z,0.30
2023-05-05T01:22:43.133Z,1.00
2023-05-05T01:26:07.614Z,0.40
2023-05-05T01:29:09.429Z,0.40
2023-05-05T01:32:03.304Z,0.60
2023-05-05T01:34:41.244Z,0.30
2023-05-05T01:37:15.208Z,0.30
2023-05-05T01:39:46.144Z,0.52
2023-05-05T01:42:15.460Z,0.30
2023-05-05T01:44:46.642Z,0.40
2023-05-05T01:47:20.377Z,0.30
2023-05-05T01:49:52.155Z,0.32
2023-05-05T01:52:25.226Z,0.30
2023-05-05T01:54:57.519Z,0.38
2023-05-05T01:57:31.739Z,0.40
2023-05-05T02:00:07.282Z,0.95
2023-05-05T02:02:40.359Z,0.30
2023-05-05T02:05:12.100Z,0.40
2023-05-05T02:07:41.518Z,0.40
2023-05-05T02:10:14.771Z,0.30
2023-05-05T02:12:46.577Z,0.40
2023-05-05T02:15:17.776Z,0.82
2023-05-05T02:17:49.687Z,0.70
2023-05-05T02:20:21.491Z,0.60
2023-05-05T02:22:51.005Z,0.60
2023-05-05T02:25:20.001Z,0.40
2023-05-05T02:27:51.582Z,0.60
2023-05-05T02:30:22.435Z,0.40
2023-05-05T02:33:01.836Z,0.40
2023-05-05T02:35:38.108Z,0.40
2023-05-05T02:38:17.450Z,0.32
2023-05-05T02:40:49.815Z,0.40
2023-05-05T02:43:23.531Z,0.47
2023-05-05T02:45:52.996Z,0.50
2023-05-05T02:48:22.915Z,0.50
2023-05-05T02:50:51.865Z,0.40
2023-05-05T02:53:26.007Z,0.50
2023-05-05T02:56:00.824Z,0.90
2023-05-05T02:58:36.125Z,0.40
2023-05-05T03:01:21.426Z,0.40
2023-05-05T03:04:01.776Z,0.38
2023-05-05T03:06:33.719Z,0.57
2023-05-05T03:09:11.264Z,0.32
2023-05-05T03:11:48.157Z,0.52
2023-05-05T03:14:21.561Z,0.73
2023-05-05T03:16:53.523Z,0.40
2023-05-05T03:19:25.081Z,0.38
2023-05-05T03:21:54.204Z,0.45
2023-05-05T03:24:23.529Z,0.40
2023-05-05T03:26:53.513Z,0.30
2023-05-05T03:29:22.299Z,0.90
2023-05-05T03:31:51.184Z,0.50
2023-05-05T03:34:20.178Z,0.30
2023-05-05T03:36:55.660Z,0.73
2023-05-05T03:39:24.153Z,0.73
2023-05-05T03:41:54.562Z,0.50
2023-05-05T03:44:23.714Z,0.40
2023-05-05T03:46:52.826Z,0.50
2023-05-05T03:49:21.569Z,0.50
2023-05-05T03:51:51.563Z,0.40
2023-05-05T03:54:20.574Z,0.43
2023-05-05T03:56:49.295Z,0.63
2023-05-05T03:59:20.344Z,0.32
2023-05-05T04:01:50.286Z,0.50
2023-05-05T04:04:19.318Z,0.70
2023-05-05T04:06:47.812Z,0.80
2023-05-05T04:09:18.811Z,0.70
2023-05-05T04:11:47.283Z,1.25
2023-05-05T04:14:15.871Z,0.50
2023-05-05T04:16:44.749Z,0.60
2023-05-05T04:19:14.005Z,0.50
2023-05-05T04:21:44.147Z,0.63
2023-05-05T04:24:12.908Z,0.50
2023-05-05T04:26:42.791Z,0.60
2023-05-05T04:29:11.625Z,0.63
2023-05-05T04:31:40.653Z,0.70
2023-05-05T04:34:10.625Z,0.65
2023-05-05T04:36:39.280Z,1.13
2023-05-05T04:39:08.404Z,0.70
2023-05-05T04:41:37.447Z,0.90
2023-05-05T04:44:08.442Z,1.00
2023-05-05T04:46:40.431Z,1.00
2023-05-05T04:49:09.397Z,0.70
2023-05-05T04:51:42.042Z,0.75
2023-05-05T04:54:11.179Z,0.90
2023-05-05T04:56:40.730Z,0.63
2023-05-05T04:59:10.985Z,0.87
2023-05-05T05:01:39.982Z,0.70
2023-05-05T05:04:10.593Z,0.60
2023-05-05T05:06:40.653Z,0.40
2023-05-05T05:09:12.707Z,0.68
2023-05-05T05:11:42.809Z,0.50
2023-05-05T05:14:12.783Z,1.20
2023-05-05T05:16:42.093Z,0.68
2023-05-05T05:19:12.009Z,1.20
2023-05-05T05:21:40.806Z,1.20
2023-05-05T05:24:11.282Z,0.80
2023-05-05T05:26:40.448Z,1.20
2023-05-05T05:29:09.255Z,1.80
2023-05-05T05:31:40.856Z,1.00
2023-05-05T05:34:12.613Z,0.80
2023-05-05T05:36:41.888Z,0.65
2023-05-05T05:39:10.889Z,1.00
2023-05-05T05:41:40.022Z,0.70
2023-05-05T05:44:09.874Z,0.80
2023-05-05T05:46:40.715Z,1.50
2023-05-05T05:49:09.738Z,0.73
2023-05-05T05:51:38.433Z,0.50
2023-05-05T05:54:07.277Z,0.57
2023-05-05T05:56:36.896Z,0.80
2023-05-05T05:59:08.463Z,0.70
2023-05-05T06:01:37.378Z,0.82
2023-05-05T06:04:08.111Z,0.80
2023-05-05T06:06:38.667Z,1.03
2023-05-05T06:09:07.749Z,2.92
2023-05-05T06:11:37.273Z,3.47
2023-05-05T06:14:08.236Z,1.38
2023-05-05T06:16:36.925Z,0.90
2023-05-05T06:19:09.853Z,0.80
2023-05-05T06:21:38.851Z,0.82
2023-05-05T06:24:08.762Z,1.70
2023-05-05T06:26:37.455Z,2.70
2023-05-05T06:29:07.421Z,0.90
2023-05-05T06:31:36.299Z,0.97
2023-05-05T06:34:06.550Z,2.00
2023-05-05T06:36:35.317Z,1.10
2023-05-05T06:39:14.580Z,0.60
2023-05-05T06:41:44.692Z,1.17
2023-05-05T06:44:14.518Z,3.20
2023-05-05T06:46:45.144Z,0.50
2023-05-05T06:49:15.300Z,1.02
2023-05-05T06:51:43.963Z,2.75
2023-05-05T06:54:12.667Z,0.43
2023-05-05T06:56:41.854Z,1.67
2023-05-05T06:59:10.879Z,2.33
2023-05-05T07:01:39.332Z,1.92
2023-05-05T07:04:08.388Z,2.03
2023-05-05T07:06:38.764Z,1.40
2023-05-05T07:09:07.380Z,1.42
2023-05-05T07:11:36.576Z,1.20
2023-05-05T07:14:05.049Z,0.80
2023-05-05T07:16:37.251Z,1.52
2023-05-05T07:19:07.706Z,0.82
2023-05-05T07:21:39.978Z,1.77
2023-05-05T07:24:09.392Z,1.30
2023-05-05T07:26:37.986Z,1.40
2023-05-05T07:29:07.299Z,1.02
2023-05-05T07:31:37.579Z,0.40
2023-05-05T07:34:06.362Z,1.17
2023-05-05T07:36:36.378Z,1.10
2023-05-05T07:39:06.789Z,1.38
2023-05-05T07:41:35.947Z,0.32
2023-05-05T07:44:04.697Z,0.88
2023-05-05T07:46:35.383Z,1.47
2023-05-05T07:49:04.280Z,1.80
2023-05-05T07:51:34.958Z,0.40
2023-05-05T07:54:09.531Z,0.43
2023-05-05T07:56:38.470Z,2.05
2023-05-05T07:59:07.272Z,0.55
2023-05-05T08:01:35.962Z,0.93
2023-05-05T08:04:04.676Z,0.80
2023-05-05T08:06:33.702Z,2.25
2023-05-05T08:09:06.166Z,1.45
2023-05-05T08:11:40.730Z,1.35
2023-05-05T08:14:11.429Z,1.55
2023-05-05T08:16:40.169Z,0.70
2023-05-05T08:19:28.562Z,0.95
2023-05-05T08:22:00.012Z,1.63
2023-05-05T08:24:29.917Z,2.13
2023-05-05T08:27:01.142Z,0.93
2023-05-05T08:29:31.270Z,0.80
2023-05-05T08:32:00.885Z,0.82
2023-05-05T08:34:29.685Z,1.20
2023-05-05T08:36:58.544Z,1.13
2023-05-05T08:39:27.618Z,1.25
2023-05-05T08:41:56.025Z,1.13
2023-05-05T08:44:26.997Z,0.70
2023-05-05T08:46:57.791Z,1.30
2023-05-05T08:49:28.927Z,1.80
2023-05-05T08:52:00.968Z,1.50
2023-05-05T08:54:35.758Z,1.40
2023-05-05T08:57:09.494Z,1.23
2023-05-05T08:59:42.898Z,1.73
2023-05-05T09:02:13.254Z,1.08
2023-05-05T09:04:49.378Z,1.07
2023-05-05T09:07:18.753Z,0.60
2023-05-05T09:09:48.441Z,0.83
2023-05-05T09:12:18.810Z,0.30
2023-05-05T09:14:49.407Z,0.95
2023-05-05T09:17:25.755Z,1.05
2023-05-05T09:20:05.746Z,0.70
2023-05-05T09:22:39.379Z,0.50
2023-05-05T09:25:10.462Z,0.40
2023-05-05T09:27:41.563Z,1.60
2023-05-05T09:30:16.794Z,1.33
2023-05-05T09:32:47.668Z,1.00
2023-05-05T09:35:18.060Z,0.40
2023-05-05T09:37:47.889Z,1.23
2023-05-05T09:40:22.061Z,0.60
2023-05-05T09:43:01.519Z,1.60
2023-05-05T09:45:33.655Z,2.50
2023-05-05T09:48:02.561Z,1.85
2023-05-05T09:50:32.787Z,2.13
2023-05-05T09:53:04.314Z,1.95
2023-05-05T09:55:33.659Z,2.17
2023-05-05T09:58:21.531Z,1.15
2023-05-05T10:00:52.375Z,1.80
2023-05-05T10:03:25.180Z,1.10
2023-05-05T10:05:57.035Z,1.70
2023-05-05T10:08:28.752Z,1.50
2023-05-05T10:11:00.985Z,1.98
2023-05-05T10:13:30.418Z,1.20
2023-05-05T10:16:03.545Z,0.97
2023-05-05T10:18:33.880Z,1.23
2023-05-05T10:21:04.250Z,1.70
2023-05-05T10:23:41.769Z,1.50
2023-05-05T10:26:14.702Z,1.90
2023-05-05T10:28:49.665Z,1.20
2023-05-05T10:31:38.491Z,1.30
2023-05-05T10:34:11.985Z,1.38
2023-05-05T10:36:43.447Z,1.05
2023-05-05T10:39:12.808Z,1.65
2023-05-05T10:41:41.505Z,1.60
2023-05-05T10:44:11.884Z,0.75
2023-05-05T10:46:42.754Z,0.77
2023-05-05T10:49:24.479Z,1.48
2023-05-05T10:52:05.641Z,1.20
2023-05-05T10:54:40.825Z,1.15
2023-05-05T10:57:14.873Z,1.58
2023-05-05T10:59:45.520Z,0.80
2023-05-05T11:02:27.521Z,1.40
2023-05-05T11:05:11.046Z,0.50
2023-05-05T11:07:42.002Z,0.60
2023-05-05T11:10:13.030Z,0.20
2023-05-05T11:13:21.176Z,0.90
2023-05-05T11:15:52.678Z,1.08
2023-05-05T11:18:37.440Z,1.20
2023-05-05T11:21:18.211Z,1.10
2023-05-05T11:23:50.052Z,0.10
2023-05-05T11:26:51.811Z,0.35
2023-05-05T11:29:20.619Z,0.98
2023-05-05T11:32:13.981Z,0.20
2023-05-05T11:34:51.942Z,0.45
2023-05-05T11:37:25.226Z,0.20
2023-05-05T11:40:05.117Z,0.35
2023-05-05T11:42:34.139Z,0.40
2023-05-05T11:45:20.540Z,0.10
2023-05-05T11:47:49.628Z,0.82
2023-05-05T11:50:23.537Z,0.80
2023-05-05T11:52:52.429Z,1.30
2023-05-05T11:55:23.399Z,1.00
2023-05-05T11:57:53.429Z,0.60
2023-05-05T12:00:34.452Z,0.90
2023-05-05T12:03:05.956Z,1.00
2023-05-05T12:05:37.086Z,0.60
2023-05-05T12:08:06.600Z,0.50
2023-05-05T12:10:35.108Z,0.40
2023-05-05T12:13:03.851Z,0.50
2023-05-05T12:15:34.242Z,0.40
2023-05-05T12:18:03.643Z,0.60
2023-05-05T12:20:36.742Z,0.53
2023-05-05T12:23:06.205Z,0.30
2023-05-05T12:25:40.314Z,0.20
2023-05-05T12:28:10.889Z,0.20
2023-05-05T12:30:39.466Z,0.40
2023-05-05T12:33:10.020Z,0.32
2023-05-05T12:35:41.567Z,0.60
2023-05-05T12:38:18.569Z,0.40
2023-05-05T12:40:50.047Z,0.30
2023-05-05T12:43:31.515Z,0.10
2023-05-05T12:46:09.811Z,0.10
2023-05-05T12:48:40.017Z,0.17
2023-05-05T12:51:18.885Z,0.30
2023-05-05T12:53:50.252Z,0.20
2023-05-05T12:56:34.274Z,0.30
2023-05-05T12:59:03.977Z,0.20
2023-05-05T13:01:32.785Z,0.20
2023-05-05T13:04:15.387Z,0.30
2023-05-05T13:06:47.086Z,0.30
2023-05-05T13:09:25.937Z,0.25
2023-05-05T13:11:54.886Z,0.10
2023-05-05T13:14:24.497Z,0.13
2023-05-05T13:16:54.293Z,0.10
2023-05-05T13:19:25.017Z,0.20
2023-05-05T13:21:55.564Z,0.45
2023-05-05T13:24:38.068Z,0.55
2023-05-05T13:27:12.636Z,0.50
2023-05-05T13:29:41.807Z,0.28
2023-05-05T13:32:10.280Z,0.40
2023-05-05T13:34:39.676Z,0.28
2023-05-05T13:37:09.854Z,0.57
2023-05-05T13:39:39.361Z,0.63
2023-05-05T13:42:08.080Z,0.65
2023-05-05T13:44:37.009Z,0.90
2023-05-05T13:47:07.917Z,0.70
2023-05-05T13:49:36.999Z,0.70
2023-05-05T13:52:06.079Z,0.10
2023-05-05T13:57:37.558Z,0.60
2023-05-05T14:00:13.971Z,0.30
2023-05-05T14:02:43.170Z,0.75
2023-05-05T14:05:16.478Z,0.40
2023-05-05T14:07:45.908Z,0.50
2023-05-05T14:10:17.562Z,0.30
2023-05-05T14:12:46.731Z,0.10
2023-05-05T14:15:16.072Z,0.10
2023-05-05T14:17:44.790Z,0.20
2023-05-05T14:20:16.027Z,0.10
2023-05-05T14:22:46.253Z,0.03
2023-05-05T14:25:17.914Z,0.30
2023-05-05T14:27:48.937Z,0.10
2023-05-05T14:30:19.995Z,0.10
2023-05-05T14:32:49.435Z,0.73
2023-05-05T14:35:20.914Z,0.47
2023-05-05T14:37:50.206Z,0.80
2023-05-05T14:40:23.213Z,0.40
2023-05-05T14:42:52.036Z,0.30
2023-05-05T14:45:21.519Z,0.20
2023-05-05T14:47:53.731Z,0.10
2023-05-05T14:50:23.966Z,0.20
2023-05-05T14:52:59.137Z,0.20
2023-05-05T14:55:32.221Z,0.30
2023-05-05T14:58:01.210Z,0.10
2023-05-05T15:00:29.825Z,0.10
2023-05-05T15:02:59.899Z,0.10
2023-05-05T15:05:31.337Z,0.03
2023-05-05T15:08:01.488Z,0.13
2023-05-05T15:10:43.941Z,0.20
2023-05-05T15:13:13.576Z,0.20
2023-05-05T15:15:42.809Z,0.00
2023-05-05T15:18:11.813Z,0.10
2023-05-05T15:20:41.325Z,0.30
2023-05-05T15:23:12.985Z,0.13
2023-05-05T15:25:44.924Z,0.00
2023-05-05T15:28:18.964Z,0.50
2023-05-05T15:31:07.493Z,0.13
2023-05-05T15:33:35.922Z,0.30
2023-05-05T15:36:04.386Z,0.55
2023-05-05T15:38:32.586Z,0.50
2023-05-05T15:41:02.164Z,0.50
2023-05-05T15:43:30.512Z,0.30
2023-05-05T15:45:58.802Z,0.40
2023-05-05T15:48:26.990Z,0.60
2023-05-05T15:50:55.255Z,0.45
2023-05-05T15:53:23.504Z,0.52
2023-05-05T15:55:51.803Z,0.10
2023-05-05T15:58:21.353Z,0.47
2023-05-05T16:00:49.664Z,0.20
2023-05-05T16:03:18.147Z,0.40
2023-05-05T16:05:47.180Z,0.30
2023-05-05T16:08:15.441Z,0.10
2023-05-05T16:10:43.676Z,0.20
2023-05-05T16:13:11.935Z,0.30
2023-05-05T16:15:41.562Z,0.40
2023-05-05T16:18:09.809Z,0.10
2023-05-05T16:20:38.048Z,0.20
2023-05-05T16:23:06.862Z,0.15
2023-05-05T16:25:35.100Z,0.40
2023-05-05T16:28:03.323Z,0.30
2023-05-05T16:30:31.678Z,0.30
2023-05-05T16:33:01.338Z,0.15
2023-05-05T16:35:29.594Z,0.70
2023-05-05T16:37:57.832Z,0.37
2023-05-05T16:40:26.092Z,0.20
2023-05-05T16:42:54.324Z,0.30
2023-05-05T16:45:22.604Z,0.38
2023-05-05T16:47:51.177Z,0.57
2023-05-05T16:50:21.063Z,0.22
2023-05-05T16:52:49.458Z,0.20
2023-05-05T16:55:17.957Z,0.45
2023-05-05T16:57:47.216Z,0.40
2023-05-05T17:00:16.408Z,0.30
2023-05-05T17:02:44.658Z,0.57
2023-05-05T17:05:12.965Z,0.25
2023-05-05T17:07:42.774Z,0.32
2023-05-05T17:10:11.954Z,0.30
2023-05-05T17:12:40.180Z,0.20
2023-05-05T17:15:09.974Z,0.50
2023-05-05T17:17:38.782Z,0.20
2023-05-05T17:20:09.684Z,0.20
2023-05-05T17:22:38.077Z,0.20
2023-05-05T17:25:09.074Z,0.30
2023-05-05T17:27:37.503Z,0.15
2023-05-05T17:30:07.281Z,0.10
2023-05-05T17:32:35.656Z,0.10
2023-05-05T17:35:04.076Z,0.20
2023-05-05T17:37:32.392Z,0.22
2023-05-05T17:40:00.684Z,0.10
2023-05-05T17:42:33.075Z,0.10
2023-05-05T17:45:01.486Z,0.10
2023-05-05T17:47:30.072Z,0.10
2023-05-05T17:49:58.938Z,0.10
2023-05-05T17:52:27.409Z,0.10
2023-05-05T17:54:55.714Z,0.10
2023-05-05T17:57:23.962Z,0.10
2023-05-05T17:59:53.772Z,0.07
2023-05-05T18:02:22.177Z,0.10
2023-05-05T18:04:50.462Z,0.10
2023-05-05T18:07:18.693Z,0.10
2023-05-05T18:09:46.936Z,0.40
2023-05-05T18:12:15.154Z,0.38
2023-05-05T18:14:43.353Z,0.20
2023-05-05T18:17:13.012Z,0.40
2023-05-05T18:19:46.164Z,0.20
2023-05-05T18:22:16.018Z,0.30
2023-05-05T18:24:44.328Z,0.20
2023-05-05T18:27:12.886Z,0.22
2023-05-05T18:29:41.189Z,0.20
2023-05-05T18:32:09.416Z,0.30
2023-05-05T18:34:39.014Z,0.30
2023-05-05T18:37:07.284Z,0.20
2023-05-05T18:39:35.696Z,0.30
2023-05-05T18:42:04.203Z,0.30
2023-05-05T18:44:34.800Z,0.22
2023-05-05T18:47:03.182Z,0.35
2023-05-05T18:49:31.829Z,0.22
2023-05-05T18:52:01.432Z,0.40
2023-05-05T18:54:29.731Z,0.40
2023-05-05T18:56:59.389Z,0.25
2023-05-05T18:59:27.739Z,0.20
2023-05-05T19:01:55.997Z,0.10
2023-05-05T19:04:31.450Z,0.50
2023-05-05T19:07:01.534Z,0.40
2023-05-05T19:09:29.794Z,0.20
2023-05-05T19:11:58.162Z,0.50
2023-05-05T19:14:26.734Z,0.93
2023-05-05T19:16:56.273Z,0.30
2023-05-05T19:19:24.681Z,0.40
2023-05-05T19:21:52.899Z,0.30
2023-05-05T19:24:22.486Z,0.20
2023-05-05T19:26:50.768Z,0.40
2023-05-05T19:29:19.090Z,0.35
2023-05-05T19:31:47.369Z,0.50
2023-05-05T19:34:15.739Z,0.50
2023-05-05T19:36:43.986Z,0.55
2023-05-05T19:39:13.696Z,0.50
2023-05-05T19:41:44.900Z,0.45
2023-05-05T19:44:13.184Z,0.52
2023-05-05T19:46:41.440Z,0.60
2023-05-05T19:49:09.780Z,0.40
2023-05-05T19:51:37.984Z,0.50
2023-05-05T19:54:06.489Z,0.40
2023-05-05T19:56:34.701Z,0.30
2023-05-05T19:59:06.282Z,0.38
2023-05-05T20:01:34.916Z,0.30
2023-05-05T20:04:04.354Z,0.40
2023-05-05T20:06:33.052Z,0.23
2023-05-05T20:09:02.053Z,0.43
2023-05-05T20:11:30.403Z,0.40
2023-05-05T20:13:59.334Z,0.40
2023-05-05T20:16:28.986Z,0.52
2023-05-05T20:18:57.432Z,0.50
2023-05-05T20:21:26.768Z,0.60
2023-05-05T20:23:55.523Z,0.60
2023-05-05T20:26:24.451Z,0.50
2023-05-05T20:28:52.834Z,0.60
2023-05-05T20:31:21.274Z,0.50
2023-05-05T20:33:50.965Z,0.40
2023-05-05T20:36:19.616Z,0.47
2023-05-05T20:38:47.826Z,0.50
2023-05-05T20:41:16.208Z,0.43
2023-05-05T20:43:44.629Z,0.50
2023-05-05T20:46:13.390Z,0.40
2023-05-05T20:48:42.955Z,0.40
2023-05-05T20:51:12.735Z,0.40
2023-05-05T20:53:41.237Z,0.28
2023-05-05T20:56:09.472Z,0.38
2023-05-05T20:58:37.711Z,0.40
2023-05-05T21:01:06.209Z,0.30
2023-05-05T21:03:34.552Z,0.40
2023-05-05T21:06:03.485Z,0.50
2023-05-05T21:08:33.080Z,0.40
2023-05-05T21:11:01.595Z,0.30
2023-05-05T21:13:30.548Z,0.30
2023-05-05T21:15:58.803Z,0.40
2023-05-05T21:18:27.703Z,0.40
2023-05-05T21:20:56.279Z,0.30
2023-05-05T21:23:24.518Z,0.40
2023-05-05T21:25:54.144Z,0.30
2023-05-05T21:28:22.401Z,0.30
2023-05-05T21:31:10.396Z,0.40
2023-05-05T21:33:39.696Z,0.40
2023-05-05T21:36:08.213Z,0.40
2023-05-05T21:38:36.494Z,0.43
2023-05-05T21:41:06.383Z,0.50
2023-05-05T21:43:34.615Z,0.35
2023-05-05T21:46:04.579Z,0.40
2023-05-05T21:48:33.137Z,0.30
2023-05-05T21:51:01.381Z,0.40
2023-05-05T21:53:29.591Z,0.30
2023-05-05T21:55:57.857Z,0.30
2023-05-05T21:58:27.617Z,0.38
2023-05-05T22:00:55.920Z,0.40
2023-05-05T22:03:24.326Z,0.30
2023-05-05T22:05:52.892Z,0.60
2023-05-05T22:10:56.684Z,0.30
2023-05-05T22:13:26.379Z,0.40
2023-05-05T22:15:54.749Z,0.38
2023-05-05T22:18:23.105Z,0.52
2023-05-05T22:20:52.633Z,0.40
2023-05-05T22:23:21.007Z,0.50
2023-05-05T22:25:49.275Z,0.40
2023-05-05T22:28:17.628Z,0.40
2023-05-05T22:30:47.221Z,0.40
2023-05-05T22:33:15.520Z,0.30
2023-05-05T22:35:43.955Z,0.35
2023-05-05T22:38:12.238Z,0.40
2023-05-05T22:40:40.617Z,0.30
2023-05-05T22:43:08.907Z,0.40
2023-05-05T22:45:37.212Z,0.40
2023-05-05T22:48:07.620Z,0.50
2023-05-05T22:50:36.781Z,0.45
2023-05-05T22:53:05.087Z,0.43
2023-05-05T22:55:33.327Z,0.60
2023-05-05T22:58:01.643Z,0.28
2023-05-05T23:00:30.252Z,0.30
2023-05-05T23:02:58.726Z,0.68
2023-05-05T23:05:28.598Z,0.40
2023-05-05T23:07:59.916Z,0.50
2023-05-05T23:10:28.713Z,0.50
2023-05-05T23:12:56.962Z,0.50
2023-05-05T23:15:25.268Z,0.50
2023-05-05T23:17:53.541Z,0.50
2023-05-05T23:20:22.071Z,0.30
2023-05-05T23:22:51.661Z,0.50
2023-05-05T23:25:20.369Z,0.40
2023-05-05T23:27:48.915Z,0.30
2023-05-05T23:30:17.571Z,0.30
2023-05-05T23:32:46.082Z,0.30
2023-05-05T23:35:14.547Z,0.40
2023-05-05T23:37:42.829Z,0.30
2023-05-05T23:40:12.853Z,0.40
2023-05-05T23:42:41.117Z,0.40
2023-05-05T23:45:11.345Z,0.32
2023-05-05T23:47:40.032Z,0.43
2023-05-05T23:50:10.321Z,0.50
2023-05-05T23:52:38.584Z,0.90
2023-05-05T23:55:08.662Z,0.47
2023-05-05T23:57:38.703Z,1.17
